PWSweather.com
Personal Weather Stations
Station Observations
IFIFE35
InverkeithingGB

InverkeithingGB

Lat: 56.0317028, Lon: -3.4039751999999908

Elevation: 233

Station Type: DAVIS VANTAGE VUE

Latest ConditionsUpdated 8:20:00 AM GMT Saturday, Aug 18, 2018
Currently Today's Max Today's Min Today's Average
Temperature 56.4°F13.6°C 59.0°F15.0°C 55.9°F13.3°C 57.9°F14.4°C
Dew Point 53.5°F11.9°C 56.4°F13.6°C 53.1°F11.7°C 54.9°F12.7°C
Winds 2.0 mph S3.2 kmh S 7.0 mph -11.3 kmh - - 4.3 mph 6.9 kmh
Wind Gusts 7.0 mph11.3 kmh 16.0 mph25.7 kmh - -
Humidity 90% 94% 83% 90%
Pressure 29.57 in1001.4 mb 29.57 in1001.4 mb 29.52 in999.7 mb -
Precipitation - 0.02 in0.5 mm - -
Hour Temp Dew Point Humidity Winds Wind Gusts Pressure Precip Precip Rate Daily Precip Total
08:20 AM 56.4°F13.6°C 53.5°F11.9°C 90% 2.0 mph S3.2 kmh S 7.0 mph11.3 kmh 29.57 in1001.4 mb 0.00 in0.0 mm 0.00 in0.0 mm 0.02 in0.5 mm
08:15 AM 56.2°F13.4°C 53.3°F11.8°C 90% 3.0 mph SSW4.8 kmh SSW 11.0 mph17.7 kmh 29.57 in1001.4 mb 0.00 in0.0 mm 0.00 in0.0 mm 0.02 in0.5 mm
08:10 AM 56.0°F13.3°C 53.1°F11.7°C 90% 3.0 mph SSW4.8 kmh SSW 11.0 mph17.7 kmh 29.57 in1001.4 mb 0.00 in0.0 mm 0.00 in0.0 mm 0.02 in0.5 mm
08:05 AM 55.9°F13.3°C 53.3°F11.8°C 91% 3.0 mph SSW4.8 kmh SSW 10.0 mph16.1 kmh 29.56 in1001.0 mb 0.01 in0.3 mm 0.00 in0.0 mm 0.02 in0.5 mm
08:00 AM 55.9°F13.3°C 53.6°F12.0°C 92% 3.0 mph SSW4.8 kmh SSW 8.0 mph12.9 kmh 29.56 in1001.0 mb 0.01 in0.3 mm 0.00 in0.0 mm 0.02 in0.5 mm
07:55 AM 56.1°F13.4°C 54.1°F12.3°C 93% 4.0 mph SSW6.4 kmh SSW 10.0 mph16.1 kmh 29.56 in1001.0 mb 0.02 in0.5 mm 0.00 in0.0 mm 0.02 in0.5 mm
07:50 AM 56.2°F13.4°C 54.2°F12.3°C 93% 3.0 mph SSW4.8 kmh SSW 10.0 mph16.1 kmh 29.56 in1001.0 mb 0.02 in0.5 mm 0.00 in0.0 mm 0.02 in0.5 mm
07:45 AM 56.3°F13.5°C 54.6°F12.6°C 94% 3.0 mph SSW4.8 kmh SSW 9.0 mph14.5 kmh 29.56 in1001.0 mb 0.02 in0.5 mm 0.00 in0.0 mm 0.02 in0.5 mm
07:40 AM 56.5°F13.6°C 54.8°F12.7°C 94% 3.0 mph SSW4.8 kmh SSW 8.0 mph12.9 kmh 29.56 in1001.0 mb 0.02 in0.5 mm 0.00 in0.0 mm 0.02 in0.5 mm
07:35 AM 56.6°F13.7°C 54.9°F12.7°C 94% 3.0 mph SSW4.8 kmh SSW 8.0 mph12.9 kmh 29.56 in1001.0 mb 0.02 in0.5 mm 0.00 in0.0 mm 0.02 in0.5 mm
07:30 AM 56.9°F13.8°C 55.2°F12.9°C 94% 3.0 mph S4.8 kmh S 8.0 mph12.9 kmh 29.56 in1001.0 mb 0.02 in0.5 mm 0.00 in0.0 mm 0.02 in0.5 mm
07:25 AM 57.1°F13.9°C 55.4°F13.0°C 94% 3.0 mph SSW4.8 kmh SSW 8.0 mph12.9 kmh 29.56 in1001.0 mb 0.02 in0.5 mm 0.00 in0.0 mm 0.02 in0.5 mm
07:20 AM 57.1°F13.9°C 55.4°F13.0°C 94% 3.0 mph SW4.8 kmh SW 8.0 mph12.9 kmh 29.55 in1000.7 mb 0.02 in0.5 mm 0.00 in0.0 mm 0.02 in0.5 mm
07:15 AM 57.2°F14.0°C 55.5°F13.1°C 94% 4.0 mph SSW6.4 kmh SSW 12.0 mph19.3 kmh 29.56 in1001.0 mb 0.02 in0.5 mm 0.00 in0.0 mm 0.02 in0.5 mm
07:10 AM 57.2°F14.0°C 55.5°F13.1°C 94% 4.0 mph SSW6.4 kmh SSW 12.0 mph19.3 kmh 29.55 in1000.7 mb 0.02 in0.5 mm 0.12 in3.0 mm 0.02 in0.5 mm
07:05 AM 57.2°F14.0°C 55.5°F13.1°C 94% 3.0 mph SSW4.8 kmh SSW 8.0 mph12.9 kmh 29.55 in1000.7 mb 0.01 in0.3 mm 0.00 in0.0 mm 0.01 in0.3 mm
07:00 AM 57.4°F14.1°C 55.4°F13.0°C 93% 4.0 mph SSW6.4 kmh SSW 11.0 mph17.7 kmh 29.55 in1000.7 mb 0.01 in0.3 mm 0.01 in0.3 mm 0.01 in0.3 mm
06:55 AM 57.4°F14.1°C 55.4°F13.0°C 93% 4.0 mph SSW6.4 kmh SSW 13.0 mph20.9 kmh 29.55 in1000.7 mb 0.00 in0.0 mm 0.00 in0.0 mm 0.00 in0.0 mm
06:50 AM 57.4°F14.1°C 55.4°F13.0°C 93% 3.0 mph SSW4.8 kmh SSW 13.0 mph20.9 kmh 29.55 in1000.7 mb 0.00 in0.0 mm 0.00 in0.0 mm 0.00 in0.0 mm
06:45 AM 57.5°F14.2°C 55.5°F13.1°C 93% 3.0 mph SW4.8 kmh SW 9.0 mph14.5 kmh 29.55 in1000.7 mb 0.00 in0.0 mm 0.00 in0.0 mm 0.00 in0.0 mm
06:40 AM 57.5°F14.2°C 55.8°F13.2°C 94% 4.0 mph SW6.4 kmh SW 12.0 mph19.3 kmh 29.55 in1000.7 mb 0.00 in0.0 mm 0.00 in0.0 mm 0.00 in0.0 mm
06:35 AM 57.5°F14.2°C 55.8°F13.2°C 94% 4.0 mph SSW6.4 kmh SSW 12.0 mph19.3 kmh 29.55 in1000.7 mb 0.00 in0.0 mm 0.00 in0.0 mm 0.00 in0.0 mm
06:30 AM 57.6°F14.2°C 55.9°F13.3°C 94% 4.0 mph SSW6.4 kmh SSW 11.0 mph17.7 kmh 29.55 in1000.7 mb 0.00 in0.0 mm 0.00 in0.0 mm 0.00 in0.0 mm
06:25 AM 57.7°F14.3°C 56.0°F13.3°C 94% 3.0 mph S4.8 kmh S 9.0 mph14.5 kmh 29.55 in1000.7 mb 0.00 in0.0 mm 0.00 in0.0 mm 0.00 in0.0 mm
06:20 AM 57.7°F14.3°C 56.0°F13.3°C 94% 3.0 mph S4.8 kmh S 7.0 mph11.3 kmh 29.55 in1000.7 mb 0.00 in0.0 mm 0.00 in0.0 mm 0.00 in0.0 mm
06:15 AM 57.7°F14.3°C 56.0°F13.3°C 94% 3.0 mph SSW4.8 kmh SSW 8.0 mph12.9 kmh 29.55 in1000.7 mb 0.00 in0.0 mm 0.00 in0.0 mm 0.00 in0.0 mm
06:10 AM 57.7°F14.3°C 56.0°F13.3°C 94% 3.0 mph S4.8 kmh S 8.0 mph12.9 kmh 29.55 in1000.7 mb 0.00 in0.0 mm 0.00 in0.0 mm 0.00 in0.0 mm
06:05 AM 57.7°F14.3°C 56.0°F13.3°C 94% 3.0 mph SSW4.8 kmh SSW 8.0 mph12.9 kmh 29.55 in1000.7 mb 0.00 in0.0 mm 0.00 in0.0 mm 0.00 in0.0 mm
06:00 AM 57.7°F14.3°C 56.0°F13.3°C 94% 3.0 mph SSW4.8 kmh SSW 8.0 mph12.9 kmh 29.55 in1000.7 mb 0.00 in0.0 mm 0.00 in0.0 mm 0.00 in0.0 mm
05:55 AM 57.7°F14.3°C 56.0°F13.3°C 94% 3.0 mph S4.8 kmh S 8.0 mph12.9 kmh 29.55 in1000.7 mb 0.00 in0.0 mm 0.00 in0.0 mm 0.00 in0.0 mm
05:50 AM 57.7°F14.3°C 56.0°F13.3°C 94% 4.0 mph S6.4 kmh S 9.0 mph14.5 kmh 29.54 in1000.3 mb 0.00 in0.0 mm 0.00 in0.0 mm 0.00 in0.0 mm
05:45 AM 57.8°F14.3°C 56.1°F13.4°C 94% 5.0 mph S8.0 kmh S 12.0 mph19.3 kmh 29.54 in1000.3 mb 0.00 in0.0 mm 0.00 in0.0 mm 0.00 in0.0 mm
05:40 AM 57.8°F14.3°C 56.1°F13.4°C 94% 5.0 mph S8.0 kmh S 12.0 mph19.3 kmh 29.54 in1000.3 mb 0.00 in0.0 mm 0.00 in0.0 mm 0.00 in0.0 mm
05:35 AM 57.8°F14.3°C 56.1°F13.4°C 94% 5.0 mph S8.0 kmh S 9.0 mph14.5 kmh 29.54 in1000.3 mb 0.00 in0.0 mm 0.00 in0.0 mm 0.00 in0.0 mm
05:30 AM 57.9°F14.4°C 56.2°F13.4°C 94% 5.0 mph S8.0 kmh S 12.0 mph19.3 kmh 29.54 in1000.3 mb 0.00 in0.0 mm 0.00 in0.0 mm 0.00 in0.0 mm
05:25 AM 57.9°F14.4°C 56.2°F13.4°C 94% 6.0 mph S9.7 kmh S 12.0 mph19.3 kmh 29.53 in1000.0 mb 0.00 in0.0 mm 0.00 in0.0 mm 0.00 in0.0 mm
05:20 AM 57.9°F14.4°C 56.2°F13.4°C 94% 6.0 mph S9.7 kmh S 12.0 mph19.3 kmh 29.53 in1000.0 mb 0.00 in0.0 mm 0.00 in0.0 mm 0.00 in0.0 mm
05:15 AM 57.9°F14.4°C 56.2°F13.4°C 94% 6.0 mph S9.7 kmh S 14.0 mph22.5 kmh 29.52 in999.7 mb 0.00 in0.0 mm 0.00 in0.0 mm 0.00 in0.0 mm
05:10 AM 58.0°F14.4°C 56.3°F13.5°C 94% 6.0 mph S9.7 kmh S 14.0 mph22.5 kmh 29.52 in999.7 mb 0.00 in0.0 mm 0.00 in0.0 mm 0.00 in0.0 mm
05:05 AM 58.1°F14.5°C 56.4°F13.6°C 94% 6.0 mph S9.7 kmh S 12.0 mph19.3 kmh 29.53 in1000.0 mb 0.00 in0.0 mm 0.00 in0.0 mm 0.00 in0.0 mm
05:00 AM 58.1°F14.5°C 56.4°F13.6°C 94% 6.0 mph S9.7 kmh S 12.0 mph19.3 kmh 29.52 in999.7 mb 0.00 in0.0 mm 0.00 in0.0 mm 0.00 in0.0 mm
04:55 AM 58.1°F14.5°C 56.4°F13.6°C 94% 5.0 mph S8.0 kmh S 12.0 mph19.3 kmh 29.52 in999.7 mb 0.00 in0.0 mm 0.00 in0.0 mm 0.00 in0.0 mm
04:50 AM 58.1°F14.5°C 56.4°F13.6°C 94% 5.0 mph S8.0 kmh S 12.0 mph19.3 kmh 29.52 in999.7 mb 0.00 in0.0 mm 0.00 in0.0 mm 0.00 in0.0 mm
04:45 AM 58.1°F14.5°C 56.4°F13.6°C 94% 6.0 mph S9.7 kmh S 12.0 mph19.3 kmh 29.52 in999.7 mb 0.00 in0.0 mm 0.00 in0.0 mm 0.00 in0.0 mm
04:40 AM 58.0°F14.4°C 56.3°F13.5°C 94% 5.0 mph S8.0 kmh S 10.0 mph16.1 kmh 29.52 in999.7 mb 0.00 in0.0 mm 0.00 in0.0 mm 0.00 in0.0 mm
04:35 AM 57.9°F14.4°C 56.2°F13.4°C 94% 5.0 mph S8.0 kmh S 10.0 mph16.1 kmh 29.52 in999.7 mb 0.00 in0.0 mm 0.00 in0.0 mm 0.00 in0.0 mm
04:30 AM 57.8°F14.3°C 56.1°F13.4°C 94% 5.0 mph S8.0 kmh S 10.0 mph16.1 kmh 29.52 in999.7 mb 0.00 in0.0 mm 0.00 in0.0 mm 0.00 in0.0 mm
04:25 AM 57.7°F14.3°C 56.0°F13.3°C 94% 4.0 mph S6.4 kmh S 8.0 mph12.9 kmh 29.53 in1000.0 mb 0.00 in0.0 mm 0.00 in0.0 mm 0.00 in0.0 mm
04:20 AM 57.4°F14.1°C 55.7°F13.2°C 94% 2.0 mph S3.2 kmh S 7.0 mph11.3 kmh 29.53 in1000.0 mb 0.00 in0.0 mm 0.00 in0.0 mm 0.00 in0.0 mm
04:15 AM 57.2°F14.0°C 55.5°F13.1°C 94% 1.0 mph SSW1.6 kmh SSW 6.0 mph9.7 kmh 29.53 in1000.0 mb 0.00 in0.0 mm 0.00 in0.0 mm 0.00 in0.0 mm
04:10 AM 57.2°F14.0°C 55.2°F12.9°C 93% 1.0 mph S1.6 kmh S 6.0 mph9.7 kmh 29.53 in1000.0 mb 0.00 in0.0 mm 0.00 in0.0 mm 0.00 in0.0 mm
04:05 AM 57.1°F13.9°C 55.1°F12.8°C 93% 1.0 mph S1.6 kmh S 7.0 mph11.3 kmh 29.54 in1000.3 mb 0.00 in0.0 mm 0.00 in0.0 mm 0.00 in0.0 mm
04:00 AM 57.2°F14.0°C 55.2°F12.9°C 93% 2.0 mph S3.2 kmh S 7.0 mph11.3 kmh 29.54 in1000.3 mb 0.00 in0.0 mm 0.00 in0.0 mm 0.00 in0.0 mm
03:55 AM 57.3°F14.1°C 55.0°F12.8°C 92% 2.0 mph SSW3.2 kmh SSW 5.0 mph8.0 kmh 29.54 in1000.3 mb 0.00 in0.0 mm 0.00 in0.0 mm 0.00 in0.0 mm
03:50 AM 57.4°F14.1°C 55.1°F12.8°C 92% 2.0 mph SW3.2 kmh SW 10.0 mph16.1 kmh 29.54 in1000.3 mb 0.00 in0.0 mm 0.00 in0.0 mm 0.00 in0.0 mm
03:45 AM 57.5°F14.2°C 54.9°F12.7°C 91% 2.0 mph SW3.2 kmh SW 10.0 mph16.1 kmh 29.54 in1000.3 mb 0.00 in0.0 mm 0.00 in0.0 mm 0.00 in0.0 mm
03:40 AM 57.6°F14.2°C 54.7°F12.6°C 90% 3.0 mph SW4.8 kmh SW 9.0 mph14.5 kmh 29.54 in1000.3 mb 0.00 in0.0 mm 0.00 in0.0 mm 0.00 in0.0 mm
03:35 AM 57.9°F14.4°C 55.0°F12.8°C 90% 3.0 mph SW4.8 kmh SW 9.0 mph14.5 kmh 29.54 in1000.3 mb 0.00 in0.0 mm 0.00 in0.0 mm 0.00 in0.0 mm
03:30 AM 58.1°F14.5°C 54.9°F12.7°C 89% 4.0 mph SSW6.4 kmh SSW 11.0 mph17.7 kmh 29.54 in1000.3 mb 0.00 in0.0 mm 0.00 in0.0 mm 0.00 in0.0 mm
03:25 AM 58.4°F14.7°C 54.9°F12.7°C 88% 5.0 mph SSW8.0 kmh SSW 12.0 mph19.3 kmh 29.54 in1000.3 mb 0.00 in0.0 mm 0.00 in0.0 mm 0.00 in0.0 mm
03:20 AM 58.8°F14.9°C 54.9°F12.7°C 87% 6.0 mph SSW9.7 kmh SSW 15.0 mph24.1 kmh 29.53 in1000.0 mb 0.00 in0.0 mm 0.00 in0.0 mm 0.00 in0.0 mm
03:15 AM 58.9°F14.9°C 54.7°F12.6°C 86% 5.0 mph SSW8.0 kmh SSW 15.0 mph24.1 kmh 29.53 in1000.0 mb 0.00 in0.0 mm 0.00 in0.0 mm 0.00 in0.0 mm
03:10 AM 59.0°F15.0°C 54.8°F12.7°C 86% 5.0 mph SSW8.0 kmh SSW 12.0 mph19.3 kmh 29.54 in1000.3 mb 0.00 in0.0 mm 0.00 in0.0 mm 0.00 in0.0 mm
03:05 AM 59.0°F15.0°C 54.8°F12.7°C 86% 5.0 mph SSW8.0 kmh SSW 10.0 mph16.1 kmh 29.54 in1000.3 mb 0.00 in0.0 mm 0.00 in0.0 mm 0.00 in0.0 mm
03:00 AM 59.0°F15.0°C 54.8°F12.7°C 86% 5.0 mph S8.0 kmh S 12.0 mph19.3 kmh 29.54 in1000.3 mb 0.00 in0.0 mm 0.00 in0.0 mm 0.00 in0.0 mm
02:55 AM 59.0°F15.0°C 54.8°F12.7°C 86% 5.0 mph SSW8.0 kmh SSW 12.0 mph19.3 kmh 29.54 in1000.3 mb 0.00 in0.0 mm 0.00 in0.0 mm 0.00 in0.0 mm
02:50 AM 59.0°F15.0°C 54.8°F12.7°C 86% 5.0 mph SSW8.0 kmh SSW 12.0 mph19.3 kmh 29.54 in1000.3 mb 0.00 in0.0 mm 0.00 in0.0 mm 0.00 in0.0 mm
02:45 AM 59.0°F15.0°C 54.8°F12.7°C 86% 5.0 mph SSW8.0 kmh SSW 11.0 mph17.7 kmh 29.54 in1000.3 mb 0.00 in0.0 mm 0.00 in0.0 mm 0.00 in0.0 mm
02:40 AM 58.9°F14.9°C 54.4°F12.4°C 85% 4.0 mph SW6.4 kmh SW 11.0 mph17.7 kmh 29.54 in1000.3 mb 0.00 in0.0 mm 0.00 in0.0 mm 0.00 in0.0 mm
02:35 AM 58.9°F14.9°C 54.4°F12.4°C 85% 4.0 mph SW6.4 kmh SW 11.0 mph17.7 kmh 29.55 in1000.7 mb 0.00 in0.0 mm 0.00 in0.0 mm 0.00 in0.0 mm
02:30 AM 58.8°F14.9°C 54.3°F12.4°C 85% 5.0 mph SW8.0 kmh SW 12.0 mph19.3 kmh 29.55 in1000.7 mb 0.00 in0.0 mm 0.00 in0.0 mm 0.00 in0.0 mm
02:25 AM 58.8°F14.9°C 54.3°F12.4°C 85% 6.0 mph SSW9.7 kmh SSW 12.0 mph19.3 kmh 29.55 in1000.7 mb 0.00 in0.0 mm 0.00 in0.0 mm 0.00 in0.0 mm
02:20 AM 58.7°F14.8°C 54.2°F12.3°C 85% 6.0 mph SSW9.7 kmh SSW 13.0 mph20.9 kmh 29.54 in1000.3 mb 0.00 in0.0 mm 0.00 in0.0 mm 0.00 in0.0 mm
02:15 AM 58.6°F14.8°C 54.1°F12.3°C 85% 5.0 mph SSW8.0 kmh SSW 13.0 mph20.9 kmh 29.54 in1000.3 mb 0.00 in0.0 mm 0.00 in0.0 mm 0.00 in0.0 mm
02:10 AM 58.6°F14.8°C 54.1°F12.3°C 85% 5.0 mph SSW8.0 kmh SSW 10.0 mph16.1 kmh 29.54 in1000.3 mb 0.00 in0.0 mm 0.00 in0.0 mm 0.00 in0.0 mm
02:05 AM 58.5°F14.7°C 54.0°F12.2°C 85% 5.0 mph SSW8.0 kmh SSW 13.0 mph20.9 kmh 29.54 in1000.3 mb 0.00 in0.0 mm 0.00 in0.0 mm 0.00 in0.0 mm
02:00 AM 58.5°F14.7°C 54.0°F12.2°C 85% 5.0 mph SSW8.0 kmh SSW 14.0 mph22.5 kmh 29.54 in1000.3 mb 0.00 in0.0 mm 0.00 in0.0 mm 0.00 in0.0 mm
01:55 AM 58.4°F14.7°C 53.9°F12.2°C 85% 6.0 mph SSW9.7 kmh SSW 14.0 mph22.5 kmh 29.54 in1000.3 mb 0.00 in0.0 mm 0.00 in0.0 mm 0.00 in0.0 mm
01:50 AM 58.4°F14.7°C 53.9°F12.2°C 85% 6.0 mph S9.7 kmh S 13.0 mph20.9 kmh 29.54 in1000.3 mb 0.00 in0.0 mm 0.00 in0.0 mm 0.00 in0.0 mm
01:45 AM 58.4°F14.7°C 53.9°F12.2°C 85% 7.0 mph SSW11.3 kmh SSW 13.0 mph20.9 kmh 29.53 in1000.0 mb 0.00 in0.0 mm 0.00 in0.0 mm 0.00 in0.0 mm
01:40 AM 58.3°F14.6°C 53.8°F12.1°C 85% 6.0 mph SSW9.7 kmh SSW 14.0 mph22.5 kmh 29.54 in1000.3 mb 0.00 in0.0 mm 0.00 in0.0 mm 0.00 in0.0 mm
01:35 AM 58.3°F14.6°C 54.1°F12.3°C 86% 6.0 mph SSW9.7 kmh SSW 14.0 mph22.5 kmh 29.54 in1000.3 mb 0.00 in0.0 mm 0.00 in0.0 mm 0.00 in0.0 mm
01:30 AM 58.2°F14.6°C 54.0°F12.2°C 86% 5.0 mph SW8.0 kmh SW 14.0 mph22.5 kmh 29.54 in1000.3 mb 0.00 in0.0 mm 0.00 in0.0 mm 0.00 in0.0 mm
01:25 AM 58.1°F14.5°C 53.9°F12.2°C 86% 5.0 mph SW8.0 kmh SW 14.0 mph22.5 kmh 29.54 in1000.3 mb 0.00 in0.0 mm 0.00 in0.0 mm 0.00 in0.0 mm
01:20 AM 58.1°F14.5°C 53.9°F12.2°C 86% 5.0 mph SW8.0 kmh SW 16.0 mph25.7 kmh 29.54 in1000.3 mb 0.00 in0.0 mm 0.00 in0.0 mm 0.00 in0.0 mm
01:15 AM 58.2°F14.6°C 54.0°F12.2°C 86% 6.0 mph SW9.7 kmh SW 16.0 mph25.7 kmh 29.53 in1000.0 mb 0.00 in0.0 mm 0.00 in0.0 mm 0.00 in0.0 mm
01:10 AM 58.2°F14.6°C 54.0°F12.2°C 86% 6.0 mph SSW9.7 kmh SSW 14.0 mph22.5 kmh 29.53 in1000.0 mb 0.00 in0.0 mm 0.00 in0.0 mm 0.00 in0.0 mm
01:05 AM 58.2°F14.6°C 54.0°F12.2°C 86% 5.0 mph SSW8.0 kmh SSW 14.0 mph22.5 kmh 29.53 in1000.0 mb 0.00 in0.0 mm 0.00 in0.0 mm 0.00 in0.0 mm
01:00 AM 58.3°F14.6°C 54.1°F12.3°C 86% 4.0 mph SW6.4 kmh SW 12.0 mph19.3 kmh 29.53 in1000.0 mb 0.00 in0.0 mm 0.00 in0.0 mm 0.00 in0.0 mm
12:55 AM 58.3°F14.6°C 54.1°F12.3°C 86% 4.0 mph SW6.4 kmh SW 10.0 mph16.1 kmh 29.53 in1000.0 mb 0.00 in0.0 mm 0.00 in0.0 mm 0.00 in0.0 mm
12:50 AM 58.3°F14.6°C 54.1°F12.3°C 86% 4.0 mph SW6.4 kmh SW 10.0 mph16.1 kmh 29.53 in1000.0 mb 0.00 in0.0 mm 0.00 in0.0 mm 0.00 in0.0 mm
12:45 AM 58.3°F14.6°C 53.8°F12.1°C 85% 4.0 mph SW6.4 kmh SW 11.0 mph17.7 kmh 29.53 in1000.0 mb 0.00 in0.0 mm 0.00 in0.0 mm 0.00 in0.0 mm
12:40 AM 58.4°F14.7°C 53.9°F12.2°C 85% 5.0 mph SW8.0 kmh SW 13.0 mph20.9 kmh 29.53 in1000.0 mb 0.00 in0.0 mm 0.00 in0.0 mm 0.00 in0.0 mm
12:35 AM 58.4°F14.7°C 53.6°F12.0°C 84% 5.0 mph SW8.0 kmh SW 13.0 mph20.9 kmh 29.53 in1000.0 mb 0.00 in0.0 mm 0.00 in0.0 mm 0.00 in0.0 mm
12:30 AM 58.4°F14.7°C 53.6°F12.0°C 84% 5.0 mph SW8.0 kmh SW 13.0 mph20.9 kmh 29.53 in1000.0 mb 0.00 in0.0 mm 0.00 in0.0 mm 0.00 in0.0 mm
12:25 AM 58.4°F14.7°C 53.6°F12.0°C 84% 4.0 mph SW6.4 kmh SW 13.0 mph20.9 kmh 29.53 in1000.0 mb 0.00 in0.0 mm 0.00 in0.0 mm 0.00 in0.0 mm
12:20 AM 58.4°F14.7°C 53.6°F12.0°C 84% 5.0 mph SW8.0 kmh SW 13.0 mph20.9 kmh 29.53 in1000.0 mb 0.00 in0.0 mm 0.00 in0.0 mm 0.00 in0.0 mm
12:15 AM 58.4°F14.7°C 53.6°F12.0°C 84% 6.0 mph SSW9.7 kmh SSW 13.0 mph20.9 kmh 29.53 in1000.0 mb 0.00 in0.0 mm 0.00 in0.0 mm 0.00 in0.0 mm
12:10 AM 58.4°F14.7°C 53.3°F11.8°C 83% 6.0 mph SSW9.7 kmh SSW 13.0 mph20.9 kmh 29.54 in1000.3 mb 0.00 in0.0 mm 0.00 in0.0 mm 0.00 in0.0 mm
12:05 AM 58.4°F14.7°C 53.3°F11.8°C 83% 5.0 mph SSW8.0 kmh SSW 16.0 mph25.7 kmh 29.54 in1000.3 mb 0.00 in0.0 mm 0.00 in0.0 mm 0.00 in0.0 mm
12:00 AM 58.4°F14.7°C 53.3°F11.8°C 83% 5.0 mph SW8.0 kmh SW 16.0 mph25.7 kmh 29.54 in1000.3 mb 0.00 in0.0 mm 0.00 in0.0 mm 0.00 in0.0 mm